sensor_id;sensor_type;location;lat;lon;timestamp;pressure;altitude;pressure_sealevel;temperature;humidity
62057;BME280;48016;50.284;18.860;2023-10-08T00:00:44;97872.71;;;15.35;78.09
62057;BME280;48016;50.284;18.860;2023-10-08T00:03:37;97873.48;;;15.24;77.68
62057;BME280;48016;50.284;18.860;2023-10-08T00:06:04;97868.08;;;15.14;77.82
62057;BME280;48016;50.284;18.860;2023-10-08T00:08:33;97871.52;;;15.06;78.36
62057;BME280;48016;50.284;18.860;2023-10-08T00:10:59;97863.89;;;14.99;77.95
62057;BME280;48016;50.284;18.860;2023-10-08T00:13:32;97863.68;;;14.90;78.80
62057;BME280;48016;50.284;18.860;2023-10-08T00:16:07;97862.19;;;14.84;79.04
62057;BME280;48016;50.284;18.860;2023-10-08T00:18:37;97861.39;;;14.79;79.67
62057;BME280;48016;50.284;18.860;2023-10-08T00:21:04;97858.08;;;14.74;79.67
62057;BME280;48016;50.284;18.860;2023-10-08T00:23:37;97853.90;;;14.69;79.75
62057;BME280;48016;50.284;18.860;2023-10-08T00:26:08;97852.60;;;14.64;79.90
62057;BME280;48016;50.284;18.860;2023-10-08T00:28:35;97857.22;;;14.61;79.75
62057;BME280;48016;50.284;18.860;2023-10-08T00:31:02;97856.73;;;14.56;80.05
62057;BME280;48016;50.284;18.860;2023-10-08T00:33:38;97854.60;;;14.53;80.23
62057;BME280;48016;50.284;18.860;2023-10-08T00:36:10;97854.33;;;14.51;80.79
62057;BME280;48016;50.284;18.860;2023-10-08T00:38:46;97856.17;;;14.46;80.59
62057;BME280;48016;50.284;18.860;2023-10-08T00:41:17;97858.29;;;14.43;80.78
62057;BME280;48016;50.284;18.860;2023-10-08T00:43:54;97861.86;;;14.39;80.94
62057;BME280;48016;50.284;18.860;2023-10-08T00:46:26;97856.27;;;14.34;81.05
62057;BME280;48016;50.284;18.860;2023-10-08T00:49:02;97855.10;;;14.31;81.30
62057;BME280;48016;50.284;18.860;2023-10-08T00:51:58;97856.23;;;14.28;81.75
62057;BME280;48016;50.284;18.860;2023-10-08T00:54:34;97855.98;;;14.24;81.63
62057;BME280;48016;50.284;18.860;2023-10-08T00:57:13;97855.48;;;14.21;81.68
62057;BME280;48016;50.284;18.860;2023-10-08T00:59:46;97860.46;;;14.19;82.04
62057;BME280;48016;50.284;18.860;2023-10-08T01:02:22;97854.63;;;14.15;81.84
62057;BME280;48016;50.284;18.860;2023-10-08T01:04:50;97854.73;;;14.11;82.14
62057;BME280;48016;50.284;18.860;2023-10-08T01:07:17;97855.84;;;14.09;82.39
62057;BME280;48016;50.284;18.860;2023-10-08T01:09:44;97858.16;;;14.05;82.10
62057;BME280;48016;50.284;18.860;2023-10-08T01:12:31;97856.41;;;14.00;82.46
62057;BME280;48016;50.284;18.860;2023-10-08T01:15:01;97857.59;;;13.97;82.88
62057;BME280;48016;50.284;18.860;2023-10-08T01:17:50;97852.25;;;13.94;83.19
62057;BME280;48016;50.284;18.860;2023-10-08T01:20:41;97847.70;;;13.92;82.87
62057;BME280;48016;50.284;18.860;2023-10-08T01:23:13;97847.46;;;13.89;82.73
62057;BME280;48016;50.284;18.860;2023-10-08T01:25:43;97847.22;;;13.85;83.14
62057;BME280;48016;50.284;18.860;2023-10-08T01:28:09;97856.22;;;13.83;83.06
62057;BME280;48016;50.284;18.860;2023-10-08T01:30:44;97870.66;;;13.78;82.59
62057;BME280;48016;50.284;18.860;2023-10-08T01:33:13;97881.63;;;13.47;80.45
62057;BME280;48016;50.284;18.860;2023-10-08T01:35:41;97888.34;;;12.99;79.95
62057;BME280;48016;50.284;18.860;2023-10-08T01:38:08;97884.78;;;12.61;80.33
62057;BME280;48016;50.284;18.860;2023-10-08T01:40:40;97885.90;;;12.21;80.79
62057;BME280;48016;50.284;18.860;2023-10-08T01:43:06;97887.31;;;11.87;81.69
62057;BME280;48016;50.284;18.860;2023-10-08T01:45:37;97902.16;;;11.58;82.48
62057;BME280;48016;50.284;18.860;2023-10-08T01:48:07;97915.20;;;11.37;83.12
62057;BME280;48016;50.284;18.860;2023-10-08T01:50:36;97907.71;;;11.25;83.42
62057;BME280;48016;50.284;18.860;2023-10-08T01:53:03;97906.56;;;11.15;83.20
62057;BME280;48016;50.284;18.860;2023-10-08T01:55:32;97897.56;;;11.02;83.68
62057;BME280;48016;50.284;18.860;2023-10-08T01:58:13;97895.36;;;10.90;83.54
62057;BME280;48016;50.284;18.860;2023-10-08T02:00:41;97885.73;;;10.84;83.69
62057;BME280;48016;50.284;18.860;2023-10-08T02:03:08;97894.36;;;10.77;84.07
62057;BME280;48016;50.284;18.860;2023-10-08T02:05:34;97893.16;;;10.71;84.06
62057;BME280;48016;50.284;18.860;2023-10-08T02:08:03;97902.21;;;10.67;84.02
62057;BME280;48016;50.284;18.860;2023-10-08T02:10:30;97914.91;;;10.62;84.73
62057;BME280;48016;50.284;18.860;2023-10-08T02:12:56;97907.98;;;10.62;84.18
62057;BME280;48016;50.284;18.860;2023-10-08T02:15:23;97898.67;;;10.61;84.54
62057;BME280;48016;50.284;18.860;2023-10-08T02:17:49;97896.84;;;10.61;85.02
62057;BME280;48016;50.284;18.860;2023-10-08T02:20:16;97917.91;;;10.57;84.93
62057;BME280;48016;50.284;18.860;2023-10-08T02:22:43;97921.41;;;10.53;84.53
62057;BME280;48016;50.284;18.860;2023-10-08T02:25:09;97910.92;;;10.53;85.42
62057;BME280;48016;50.284;18.860;2023-10-08T02:27:37;97911.98;;;10.46;86.27
62057;BME280;48016;50.284;18.860;2023-10-08T02:30:04;97912.49;;;10.42;85.38
62057;BME280;48016;50.284;18.860;2023-10-08T02:32:32;97917.74;;;10.31;85.64
62057;BME280;48016;50.284;18.860;2023-10-08T02:34:58;97918.41;;;10.22;86.38
62057;BME280;48016;50.284;18.860;2023-10-08T02:37:25;97912.05;;;10.16;85.83
62057;BME280;48016;50.284;18.860;2023-10-08T02:39:51;97904.21;;;10.12;86.42
62057;BME280;48016;50.284;18.860;2023-10-08T02:42:18;97903.48;;;10.09;86.08
62057;BME280;48016;50.284;18.860;2023-10-08T02:44:45;97905.84;;;10.06;86.25
62057;BME280;48016;50.284;18.860;2023-10-08T02:47:11;97913.72;;;10.04;86.61
62057;BME280;48016;50.284;18.860;2023-10-08T02:49:38;97934.56;;;10.02;86.93
62057;BME280;48016;50.284;18.860;2023-10-08T02:52:07;97944.84;;;10.04;86.68
62057;BME280;48016;50.284;18.860;2023-10-08T02:54:35;97945.95;;;10.09;86.55
62057;BME280;48016;50.284;18.860;2023-10-08T02:57:04;97946.66;;;10.11;86.30
62057;BME280;48016;50.284;18.860;2023-10-08T02:59:35;97948.42;;;10.15;86.47
62057;BME280;48016;50.284;18.860;2023-10-08T03:02:09;97955.52;;;10.18;86.22
62057;BME280;48016;50.284;18.860;2023-10-08T03:04:41;97964.27;;;10.21;85.85
62057;BME280;48016;50.284;18.860;2023-10-08T03:07:08;97960.65;;;10.20;85.65
62057;BME280;48016;50.284;18.860;2023-10-08T03:09:38;97961.58;;;10.21;86.17
62057;BME280;48016;50.284;18.860;2023-10-08T03:12:08;97955.27;;;10.23;85.87
62057;BME280;48016;50.284;18.860;2023-10-08T03:14:36;97954.40;;;10.22;85.36
62057;BME280;48016;50.284;18.860;2023-10-08T03:17:16;97971.02;;;10.19;85.34
62057;BME280;48016;50.284;18.860;2023-10-08T03:19:46;97978.42;;;10.18;85.61
62057;BME280;48016;50.284;18.860;2023-10-08T03:22:13;97970.59;;;10.19;85.87
62057;BME280;48016;50.284;18.860;2023-10-08T03:24:39;97969.02;;;10.18;85.35
62057;BME280;48016;50.284;18.860;2023-10-08T03:27:06;97978.35;;;10.15;85.15
62057;BME280;48016;50.284;18.860;2023-10-08T03:29:33;97992.03;;;10.10;85.21
62057;BME280;48016;50.284;18.860;2023-10-08T03:32:07;98026.44;;;10.08;85.32
62057;BME280;48016;50.284;18.860;2023-10-08T03:34:39;98040.52;;;10.08;85.49
62057;BME280;48016;50.284;18.860;2023-10-08T03:37:09;98036.67;;;10.05;85.34
62057;BME280;48016;50.284;18.860;2023-10-08T03:39:38;98035.46;;;10.04;85.42
62057;BME280;48016;50.284;18.860;2023-10-08T03:42:23;98031.93;;;10.00;85.76
62057;BME280;48016;50.284;18.860;2023-10-08T03:44:50;98026.29;;;9.97;85.48
62057;BME280;48016;50.284;18.860;2023-10-08T03:47:22;98037.16;;;9.94;85.86
62057;BME280;48016;50.284;18.860;2023-10-08T03:49:49;98053.23;;;9.94;85.52
62057;BME280;48016;50.284;18.860;2023-10-08T03:52:17;98061.81;;;9.90;85.03
62057;BME280;48016;50.284;18.860;2023-10-08T03:54:52;98068.67;;;9.85;85.28
62057;BME280;48016;50.284;18.860;2023-10-08T03:57:37;98069.83;;;9.81;85.44
62057;BME280;48016;50.284;18.860;2023-10-08T04:00:10;98075.95;;;9.78;85.22
62057;BME280;48016;50.284;18.860;2023-10-08T04:02:45;98084.62;;;9.74;85.47
62057;BME280;48016;50.284;18.860;2023-10-08T04:05:22;98078.48;;;9.71;85.84
62057;BME280;48016;50.284;18.860;2023-10-08T04:07:53;98085.70;;;9.69;85.64
62057;BME280;48016;50.284;18.860;2023-10-08T04:10:26;98095.25;;;9.69;85.54
62057;BME280;48016;50.284;18.860;2023-10-08T04:13:25;98102.52;;;9.68;85.81
62057;BME280;48016;50.284;18.860;2023-10-08T04:15:51;98118.23;;;9.62;85.49
62057;BME280;48016;50.284;18.860;2023-10-08T04:18:18;98132.14;;;9.56;85.52
62057;BME280;48016;50.284;18.860;2023-10-08T04:20:46;98130.14;;;9.55;85.60
62057;BME280;48016;50.284;18.860;2023-10-08T04:23:32;98129.05;;;9.55;85.86
62057;BME280;48016;50.284;18.860;2023-10-08T04:25:59;98121.64;;;9.53;85.58
62057;BME280;48016;50.284;18.860;2023-10-08T04:28:26;98122.80;;;9.51;85.63
62057;BME280;48016;50.284;18.860;2023-10-08T04:30:54;98128.95;;;9.51;85.82
62057;BME280;48016;50.284;18.860;2023-10-08T04:33:27;98140.19;;;9.53;86.08
62057;BME280;48016;50.284;18.860;2023-10-08T04:35:56;98139.20;;;9.56;85.91
62057;BME280;48016;50.284;18.860;2023-10-08T04:38:27;98139.92;;;9.57;85.99
62057;BME280;48016;50.284;18.860;2023-10-08T04:40:55;98144.34;;;9.56;86.01
62057;BME280;48016;50.284;18.860;2023-10-08T04:43:26;98143.81;;;9.57;85.93
62057;BME280;48016;50.284;18.860;2023-10-08T04:45:54;98163.21;;;9.59;85.46
62057;BME280;48016;50.284;18.860;2023-10-08T04:48:23;98176.31;;;9.58;85.63
62057;BME280;48016;50.284;18.860;2023-10-08T04:50:51;98180.05;;;9.58;85.60
62057;BME280;48016;50.284;18.860;2023-10-08T04:53:33;98188.48;;;9.59;85.70
62057;BME280;48016;50.284;18.860;2023-10-08T04:56:04;98199.61;;;9.60;85.76
62057;BME280;48016;50.284;18.860;2023-10-08T04:58:32;98211.30;;;9.58;85.56
62057;BME280;48016;50.284;18.860;2023-10-08T05:01:07;98221.54;;;9.57;85.70
62057;BME280;48016;50.284;18.860;2023-10-08T05:03:53;98220.86;;;9.58;85.64
62057;BME280;48016;50.284;18.860;2023-10-08T05:06:27;98210.02;;;9.59;85.55
62057;BME280;48016;50.284;18.860;2023-10-08T05:09:06;98207.87;;;9.56;85.37
62057;BME280;48016;50.284;18.860;2023-10-08T05:11:39;98209.36;;;9.55;85.63
62057;BME280;48016;50.284;18.860;2023-10-08T05:14:21;98192.21;;;9.56;85.60
62057;BME280;48016;50.284;18.860;2023-10-08T05:16:57;98187.11;;;9.58;85.68
62057;BME280;48016;50.284;18.860;2023-10-08T05:19:41;98191.88;;;9.59;85.80
62057;BME280;48016;50.284;18.860;2023-10-08T05:22:08;98201.39;;;9.60;85.82
62057;BME280;48016;50.284;18.860;2023-10-08T05:24:45;98220.95;;;9.61;85.64
62057;BME280;48016;50.284;18.860;2023-10-08T05:27:32;98246.35;;;9.63;85.73
62057;BME280;48016;50.284;18.860;2023-10-08T05:30:24;98261.00;;;9.65;85.69
62057;BME280;48016;50.284;18.860;2023-10-08T05:32:58;98255.22;;;9.65;85.84
62057;BME280;48016;50.284;18.860;2023-10-08T05:35:30;98259.95;;;9.67;86.03
62057;BME280;48016;50.284;18.860;2023-10-08T05:38:09;98258.85;;;9.70;85.95
62057;BME280;48016;50.284;18.860;2023-10-08T05:41:08;98271.80;;;9.72;85.99
62057;BME280;48016;50.284;18.860;2023-10-08T05:43:54;98282.55;;;9.72;86.04
62057;BME280;48016;50.284;18.860;2023-10-08T05:46:40;98288.56;;;9.71;85.88
62057;BME280;48016;50.284;18.860;2023-10-08T05:49:17;98288.59;;;9.70;86.16
62057;BME280;48016;50.284;18.860;2023-10-08T05:52:04;98294.65;;;9.70;85.86
62057;BME280;48016;50.284;18.860;2023-10-08T05:54:31;98290.79;;;9.72;85.87
62057;BME280;48016;50.284;18.860;2023-10-08T05:57:01;98290.16;;;9.72;86.15
62057;BME280;48016;50.284;18.860;2023-10-08T05:59:41;98295.77;;;9.73;86.14
62057;BME280;48016;50.284;18.860;2023-10-08T06:02:26;98306.83;;;9.77;86.01
62057;BME280;48016;50.284;18.860;2023-10-08T06:04:53;98310.13;;;9.80;85.97
62057;BME280;48016;50.284;18.860;2023-10-08T06:07:41;98318.38;;;9.85;85.94
62057;BME280;48016;50.284;18.860;2023-10-08T06:10:16;98319.67;;;9.88;85.82
62057;BME280;48016;50.284;18.860;2023-10-08T06:12:59;98331.92;;;9.91;85.73
62057;BME280;48016;50.284;18.860;2023-10-08T06:15:46;98334.77;;;9.94;85.79
62057;BME280;48016;50.284;18.860;2023-10-08T06:20:54;98343.97;;;9.99;85.79
62057;BME280;48016;50.284;18.860;2023-10-08T06:23:21;98348.65;;;10.03;85.53
62057;BME280;48016;50.284;18.860;2023-10-08T06:25:49;98349.31;;;10.04;85.33
62057;BME280;48016;50.284;18.860;2023-10-08T06:28:31;98349.46;;;10.06;85.45
62057;BME280;48016;50.284;18.860;2023-10-08T06:31:01;98350.80;;;10.10;85.28
62057;BME280;48016;50.284;18.860;2023-10-08T06:33:29;98357.02;;;10.14;85.07
62057;BME280;48016;50.284;18.860;2023-10-08T06:35:59;98361.87;;;10.17;84.99
62057;BME280;48016;50.284;18.860;2023-10-08T06:38:32;98367.48;;;10.21;84.96
62057;BME280;48016;50.284;18.860;2023-10-08T06:41:03;98378.11;;;10.24;84.66
62057;BME280;48016;50.284;18.860;2023-10-08T06:43:41;98392.02;;;10.23;84.48
62057;BME280;48016;50.284;18.860;2023-10-08T06:46:14;98393.73;;;10.20;84.36
62057;BME280;48016;50.284;18.860;2023-10-08T06:48:41;98394.36;;;10.19;84.29
62057;BME280;48016;50.284;18.860;2023-10-08T06:51:09;98399.77;;;10.19;84.23
62057;BME280;48016;50.284;18.860;2023-10-08T06:53:39;98401.69;;;10.17;84.05
62057;BME280;48016;50.284;18.860;2023-10-08T06:56:06;98400.65;;;10.17;84.06
62057;BME280;48016;50.284;18.860;2023-10-08T06:58:35;98404.90;;;10.15;83.92
62057;BME280;48016;50.284;18.860;2023-10-08T07:01:02;98405.77;;;10.12;83.86
62057;BME280;48016;50.284;18.860;2023-10-08T07:03:31;98415.16;;;10.11;83.92
62057;BME280;48016;50.284;18.860;2023-10-08T07:06:00;98419.23;;;10.08;83.73
62057;BME280;48016;50.284;18.860;2023-10-08T07:08:29;98418.74;;;10.05;83.64
62057;BME280;48016;50.284;18.860;2023-10-08T07:10:59;98420.70;;;10.01;83.56
62057;BME280;48016;50.284;18.860;2023-10-08T07:13:27;98433.19;;;9.99;83.59
62057;BME280;48016;50.284;18.860;2023-10-08T07:15:55;98433.41;;;9.98;83.62
62057;BME280;48016;50.284;18.860;2023-10-08T07:18:22;98436.23;;;9.96;83.71
62057;BME280;48016;50.284;18.860;2023-10-08T07:20:52;98442.52;;;9.94;83.76
62057;BME280;48016;50.284;18.860;2023-10-08T07:23:20;98445.98;;;9.90;83.71
62057;BME280;48016;50.284;18.860;2023-10-08T07:25:56;98451.35;;;9.88;83.80
62057;BME280;48016;50.284;18.860;2023-10-08T07:28:37;98463.88;;;9.91;84.10
62057;BME280;48016;50.284;18.860;2023-10-08T07:31:12;98462.95;;;9.90;84.06
62057;BME280;48016;50.284;18.860;2023-10-08T07:33:42;98463.09;;;9.89;83.98
62057;BME280;48016;50.284;18.860;2023-10-08T07:36:10;98460.52;;;9.90;84.05
62057;BME280;48016;50.284;18.860;2023-10-08T07:38:43;98467.95;;;9.89;84.09
62057;BME280;48016;50.284;18.860;2023-10-08T07:41:10;98472.68;;;9.88;83.90
62057;BME280;48016;50.284;18.860;2023-10-08T07:43:41;98473.80;;;9.87;83.67
62057;BME280;48016;50.284;18.860;2023-10-08T07:46:12;98478.14;;;10.00;83.71
62057;BME280;48016;50.284;18.860;2023-10-08T07:48:41;98480.41;;;10.17;83.94
62057;BME280;48016;50.284;18.860;2023-10-08T07:51:10;98488.80;;;10.42;84.10
62057;BME280;48016;50.284;18.860;2023-10-08T07:53:36;98490.95;;;10.58;83.78
62057;BME280;48016;50.284;18.860;2023-10-08T07:56:08;98499.30;;;10.67;83.23
62057;BME280;48016;50.284;18.860;2023-10-08T07:58:35;98507.67;;;10.75;83.22
62057;BME280;48016;50.284;18.860;2023-10-08T08:01:07;98520.56;;;10.85;83.06
62057;BME280;48016;50.284;18.860;2023-10-08T08:03:40;98524.89;;;10.93;82.40
62057;BME280;48016;50.284;18.860;2023-10-08T08:06:08;98537.61;;;10.98;81.81
62057;BME280;48016;50.284;18.860;2023-10-08T08:08:35;98543.86;;;11.01;81.91
62057;BME280;48016;50.284;18.860;2023-10-08T08:11:03;98540.11;;;10.99;81.27
62057;BME280;48016;50.284;18.860;2023-10-08T08:13:39;98543.83;;;11.02;80.91
62057;BME280;48016;50.284;18.860;2023-10-08T08:16:11;98549.30;;;11.11;80.94
62057;BME280;48016;50.284;18.860;2023-10-08T08:21:12;98549.24;;;11.21;80.41
62057;BME280;48016;50.284;18.860;2023-10-08T08:23:42;98547.77;;;11.34;80.22
62057;BME280;48016;50.284;18.860;2023-10-08T08:26:14;98541.70;;;11.52;79.89
62057;BME280;48016;50.284;18.860;2023-10-08T08:28:55;98537.14;;;11.75;79.81
62057;BME280;48016;50.284;18.860;2023-10-08T08:31:26;98538.63;;;11.97;79.68
62057;BME280;48016;50.284;18.860;2023-10-08T08:33:53;98538.65;;;12.20;79.52
62057;BME280;48016;50.284;18.860;2023-10-08T08:36:20;98532.84;;;12.34;78.09
62057;BME280;48016;50.284;18.860;2023-10-08T08:38:47;98532.89;;;12.50;77.41
62057;BME280;48016;50.284;18.860;2023-10-08T08:41:14;98540.80;;;12.58;76.17
62057;BME280;48016;50.284;18.860;2023-10-08T08:43:47;98551.09;;;12.55;74.93
62057;BME280;48016;50.284;18.860;2023-10-08T08:46:14;98552.34;;;12.47;75.00
62057;BME280;48016;50.284;18.860;2023-10-08T08:48:41;98560.19;;;12.38;74.87
62057;BME280;48016;50.284;18.860;2023-10-08T08:51:08;98561.00;;;12.30;74.67
62057;BME280;48016;50.284;18.860;2023-10-08T08:53:36;98563.69;;;12.20;74.59
62057;BME280;48016;50.284;18.860;2023-10-08T08:56:04;98573.96;;;12.11;74.44
62057;BME280;48016;50.284;18.860;2023-10-08T08:58:36;98578.19;;;12.23;74.10
62057;BME280;48016;50.284;18.860;2023-10-08T09:01:07;98582.43;;;12.39;73.10
62057;BME280;48016;50.284;18.860;2023-10-08T09:03:39;98582.73;;;12.49;72.92
62057;BME280;48016;50.284;18.860;2023-10-08T09:06:05;98586.03;;;12.48;71.09
62057;BME280;48016;50.284;18.860;2023-10-08T09:08:35;98586.61;;;12.46;67.96
62057;BME280;48016;50.284;18.860;2023-10-08T09:11:02;98591.54;;;12.43;66.67
62057;BME280;48016;50.284;18.860;2023-10-08T09:13:31;98595.22;;;12.37;64.59
62057;BME280;48016;50.284;18.860;2023-10-08T09:16:07;98601.20;;;12.40;65.38
62057;BME280;48016;50.284;18.860;2023-10-08T09:18:34;98601.67;;;12.18;61.53
62057;BME280;48016;50.284;18.860;2023-10-08T09:21:10;98611.45;;;11.92;62.62
62057;BME280;48016;50.284;18.860;2023-10-08T09:23:40;98614.82;;;11.92;64.67
62057;BME280;48016;50.284;18.860;2023-10-08T09:26:10;98616.02;;;12.05;65.95
62057;BME280;48016;50.284;18.860;2023-10-08T09:28:40;98614.52;;;12.23;66.50
62057;BME280;48016;50.284;18.860;2023-10-08T09:31:13;98618.21;;;12.38;66.82
62057;BME280;48016;50.284;18.860;2023-10-08T09:33:40;98624.85;;;12.46;65.45
62057;BME280;48016;50.284;18.860;2023-10-08T09:36:07;98621.10;;;12.46;65.51
62057;BME280;48016;50.284;18.860;2023-10-08T09:38:37;98625.41;;;12.48;64.93
62057;BME280;48016;50.284;18.860;2023-10-08T09:41:03;98627.05;;;12.38;61.16
62057;BME280;48016;50.284;18.860;2023-10-08T09:43:30;98628.95;;;12.38;60.33
62057;BME280;48016;50.284;18.860;2023-10-08T09:46:00;98631.86;;;12.42;59.83
62057;BME280;48016;50.284;18.860;2023-10-08T09:48:32;98633.79;;;12.52;60.83
62057;BME280;48016;50.284;18.860;2023-10-08T09:51:03;98629.09;;;12.55;58.80
62057;BME280;48016;50.284;18.860;2023-10-08T09:53:36;98627.61;;;12.59;57.62
62057;BME280;48016;50.284;18.860;2023-10-08T09:56:11;98626.02;;;12.73;57.23
62057;BME280;48016;50.284;18.860;2023-10-08T09:58:40;98625.30;;;12.87;57.84
62057;BME280;48016;50.284;18.860;2023-10-08T10:01:07;98632.44;;;12.91;58.03
62057;BME280;48016;50.284;18.860;2023-10-08T10:03:34;98642.56;;;12.73;56.33
62057;BME280;48016;50.284;18.860;2023-10-08T10:06:02;98647.48;;;12.72;57.11
62057;BME280;48016;50.284;18.860;2023-10-08T10:08:28;98652.70;;;12.71;55.73
62057;BME280;48016;50.284;18.860;2023-10-08T10:11:01;98648.13;;;12.69;55.43
62057;BME280;48016;50.284;18.860;2023-10-08T10:13:29;98657.73;;;12.68;53.86
62057;BME280;48016;50.284;18.860;2023-10-08T10:15:59;98665.73;;;12.71;53.37
62057;BME280;48016;50.284;18.860;2023-10-08T10:20:56;98668.38;;;12.71;53.96
62057;BME280;48016;50.284;18.860;2023-10-08T10:23:43;98670.53;;;12.62;52.25
62057;BME280;48016;50.284;18.860;2023-10-08T10:31:41;98666.39;;;12.74;53.62
62057;BME280;48016;50.284;18.860;2023-10-08T10:34:11;98673.70;;;12.71;52.14
62057;BME280;48016;50.284;18.860;2023-10-08T10:36:39;98678.04;;;12.63;54.45
62057;BME280;48016;50.284;18.860;2023-10-08T10:39:06;98687.66;;;12.48;52.23
62057;BME280;48016;50.284;18.860;2023-10-08T10:41:45;98688.69;;;12.41;51.71
62057;BME280;48016;50.284;18.860;2023-10-08T10:44:12;98690.98;;;12.31;52.77
62057;BME280;48016;50.284;18.860;2023-10-08T10:46:42;98691.29;;;12.30;51.59
62057;BME280;48016;50.284;18.860;2023-10-08T10:49:09;98693.05;;;12.31;52.64
62057;BME280;48016;50.284;18.860;2023-10-08T10:51:48;98697.57;;;12.23;51.02
62057;BME280;48016;50.284;18.860;2023-10-08T10:54:19;98688.10;;;12.14;49.34
62057;BME280;48016;50.284;18.860;2023-10-08T10:56:47;98689.84;;;12.14;50.26
62057;BME280;48016;50.284;18.860;2023-10-08T10:59:14;98692.82;;;12.15;50.24
62057;BME280;48016;50.284;18.860;2023-10-08T11:01:49;98690.37;;;12.14;49.79
62057;BME280;48016;50.284;18.860;2023-10-08T11:04:34;98694.95;;;12.11;50.67
62057;BME280;48016;50.284;18.860;2023-10-08T11:07:14;98698.52;;;12.00;49.43
62057;BME280;48016;50.284;18.860;2023-10-08T11:09:42;98699.88;;;12.05;50.34
62057;BME280;48016;50.284;18.860;2023-10-08T11:12:12;98701.67;;;12.11;50.64
62057;BME280;48016;50.284;18.860;2023-10-08T11:14:39;98701.33;;;12.08;50.17
62057;BME280;48016;50.284;18.860;2023-10-08T11:17:23;98701.85;;;12.08;50.67
62057;BME280;48016;50.284;18.860;2023-10-08T11:19:50;98699.92;;;12.14;50.91
62057;BME280;48016;50.284;18.860;2023-10-08T11:22:17;98699.50;;;12.20;51.00
62057;BME280;48016;50.284;18.860;2023-10-08T11:24:45;98705.69;;;12.22;50.34
62057;BME280;48016;50.284;18.860;2023-10-08T11:27:14;98700.59;;;12.16;47.91
62057;BME280;48016;50.284;18.860;2023-10-08T11:29:43;98697.14;;;12.08;46.84
62057;BME280;48016;50.284;18.860;2023-10-08T11:32:10;98704.33;;;12.07;46.81
62057;BME280;48016;50.284;18.860;2023-10-08T11:34:39;98702.08;;;12.04;47.58
62057;BME280;48016;50.284;18.860;2023-10-08T11:37:05;98705.17;;;12.03;47.23
62057;BME280;48016;50.284;18.860;2023-10-08T11:39:46;98701.62;;;12.06;47.45
62057;BME280;48016;50.284;18.860;2023-10-08T11:42:13;98701.29;;;12.00;46.92
62057;BME280;48016;50.284;18.860;2023-10-08T11:44:57;98696.43;;;11.93;46.15
62057;BME280;48016;50.284;18.860;2023-10-08T11:47:25;98701.29;;;11.91;46.15
62057;BME280;48016;50.284;18.860;2023-10-08T11:49:57;98707.10;;;11.84;45.94
62057;BME280;48016;50.284;18.860;2023-10-08T11:52:36;98705.27;;;11.78;45.70
62057;BME280;48016;50.284;18.860;2023-10-08T11:55:08;98712.52;;;11.76;45.23
62057;BME280;48016;50.284;18.860;2023-10-08T11:57:35;98713.88;;;11.76;45.93
62057;BME280;48016;50.284;18.860;2023-10-08T12:00:02;98717.65;;;11.75;45.54
62057;BME280;48016;50.284;18.860;2023-10-08T12:02:48;98717.45;;;11.76;46.26
62057;BME280;48016;50.284;18.860;2023-10-08T12:05:15;98727.02;;;11.80;46.44
62057;BME280;48016;50.284;18.860;2023-10-08T12:07:52;98726.92;;;11.79;46.13
62057;BME280;48016;50.284;18.860;2023-10-08T12:10:23;98734.13;;;11.70;46.23
62057;BME280;48016;50.284;18.860;2023-10-08T12:12:53;98735.84;;;11.65;46.18
62057;BME280;48016;50.284;18.860;2023-10-08T12:15:23;98739.15;;;11.62;45.68
62057;BME280;48016;50.284;18.860;2023-10-08T12:18:00;98740.00;;;11.64;46.59
62057;BME280;48016;50.284;18.860;2023-10-08T12:20:39;98743.02;;;11.64;47.37
62057;BME280;48016;50.284;18.860;2023-10-08T12:23:10;98744.42;;;11.64;46.50
62057;BME280;48016;50.284;18.860;2023-10-08T12:25:54;98746.65;;;11.63;46.72
62057;BME280;48016;50.284;18.860;2023-10-08T12:28:22;98747.88;;;11.55;45.07
62057;BME280;48016;50.284;18.860;2023-10-08T12:30:50;98747.14;;;11.41;44.54
62057;BME280;48016;50.284;18.860;2023-10-08T12:33:19;98746.72;;;11.33;45.23
62057;BME280;48016;50.284;18.860;2023-10-08T12:35:46;98748.50;;;11.25;45.51
62057;BME280;48016;50.284;18.860;2023-10-08T12:38:13;98749.09;;;11.25;45.58
62057;BME280;48016;50.284;18.860;2023-10-08T12:40:40;98744.14;;;11.20;45.60
62057;BME280;48016;50.284;18.860;2023-10-08T12:43:22;98742.25;;;11.16;46.05
62057;BME280;48016;50.284;18.860;2023-10-08T12:45:49;98749.38;;;11.08;45.84
62057;BME280;48016;50.284;18.860;2023-10-08T12:48:22;98749.06;;;11.05;46.67
62057;BME280;48016;50.284;18.860;2023-10-08T12:50:50;98748.16;;;11.06;46.79
62057;BME280;48016;50.284;18.860;2023-10-08T12:53:20;98751.02;;;11.09;46.63
62057;BME280;48016;50.284;18.860;2023-10-08T12:55:50;98752.22;;;11.14;47.26
62057;BME280;48016;50.284;18.860;2023-10-08T12:58:23;98753.38;;;11.19;47.07
62057;BME280;48016;50.284;18.860;2023-10-08T13:00:52;98754.34;;;11.22;46.68
62057;BME280;48016;50.284;18.860;2023-10-08T13:03:24;98761.83;;;11.25;47.12
62057;BME280;48016;50.284;18.860;2023-10-08T13:05:51;98762.17;;;11.28;46.97
62057;BME280;48016;50.284;18.860;2023-10-08T13:08:21;98762.63;;;11.33;46.97
62057;BME280;48016;50.284;18.860;2023-10-08T13:10:47;98765.83;;;11.37;46.97
62057;BME280;48016;50.284;18.860;2023-10-08T13:13:14;98769.96;;;11.38;47.22
62057;BME280;48016;50.284;18.860;2023-10-08T13:15:40;98769.59;;;11.36;45.87
62057;BME280;48016;50.284;18.860;2023-10-08T13:18:08;98766.08;;;11.35;45.15
62057;BME280;48016;50.284;18.860;2023-10-08T13:20:34;98770.79;;;11.35;45.60
62057;BME280;48016;50.284;18.860;2023-10-08T13:23:01;98770.11;;;11.37;45.50
62057;BME280;48016;50.284;18.860;2023-10-08T13:25:27;98772.44;;;11.37;45.88
62057;BME280;48016;50.284;18.860;2023-10-08T13:27:54;98776.20;;;11.36;45.18